createdAt,value
2018-05-09T08:18:18.520Z,63.68
2018-05-09T08:20:46.144Z,60.39
2018-05-09T08:23:13.742Z,57.89
2018-05-09T08:25:41.401Z,57.23
2018-05-09T08:28:09.010Z,56.00
2018-05-09T08:30:38.631Z,55.82
2018-05-09T08:33:06.394Z,53.59
2018-05-09T08:35:33.965Z,53.03
2018-05-09T08:38:01.521Z,51.77
2018-05-09T08:40:29.136Z,52.34
2018-05-09T08:42:56.720Z,53.39
2018-05-09T08:45:24.325Z,53.98
2018-05-09T08:47:51.930Z,53.25
2018-05-09T08:50:19.575Z,53.80
2018-05-09T08:55:21.127Z,53.48
2018-05-09T08:57:48.754Z,51.88
2018-05-09T09:00:16.323Z,53.39
2018-05-09T09:05:17.881Z,52.21
2018-05-09T09:07:45.499Z,52.46
2018-05-09T09:10:13.125Z,51.80
2018-05-09T09:12:40.726Z,50.85
2018-05-09T09:15:08.306Z,50.90
2018-05-09T09:17:35.900Z,50.26
2018-05-09T09:20:03.553Z,50.62
2018-05-09T09:22:31.183Z,50.08
2018-05-09T09:24:58.801Z,50.53
2018-05-09T09:27:26.910Z,50.43
2018-05-09T09:29:54.488Z,49.42
2018-05-09T09:32:22.085Z,48.03
2018-05-09T09:34:49.681Z,47.94
2018-05-09T09:37:17.303Z,47.23
2018-05-09T09:39:44.930Z,47.16
2018-05-09T09:42:12.607Z,45.81
2018-05-09T09:44:40.214Z,46.50
2018-05-09T09:47:07.964Z,45.37
2018-05-09T09:49:35.556Z,43.57
2018-05-09T09:52:03.295Z,43.49
2018-05-09T09:54:30.906Z,43.20
2018-05-09T09:56:58.500Z,43.49
2018-05-09T09:59:26.053Z,42.69
2018-05-09T10:01:53.561Z,40.54
2018-05-09T10:04:21.351Z,40.05
2018-05-09T10:06:48.948Z,40.24
2018-05-09T10:09:17.262Z,41.61
2018-05-09T10:11:45.012Z,43.75
2018-05-09T10:14:12.654Z,43.45
2018-05-09T10:16:40.454Z,42.82
2018-05-09T10:19:08.503Z,42.29
2018-05-09T10:21:36.675Z,42.53
2018-05-09T10:24:04.338Z,41.57
2018-05-09T10:26:32.012Z,40.74
2018-05-09T10:28:59.528Z,40.92
2018-05-09T10:31:27.719Z,40.19
2018-05-09T10:33:55.292Z,41.14
2018-05-09T10:36:23.794Z,41.07
2018-05-09T10:38:51.325Z,41.70
2018-05-09T10:41:18.853Z,41.20
2018-05-09T10:43:46.636Z,41.04
2018-05-09T10:46:14.206Z,40.54
2018-05-09T10:48:41.980Z,40.87
2018-05-09T10:51:09.867Z,40.86
2018-05-09T10:53:37.498Z,41.18
2018-05-09T10:56:05.995Z,40.84
2018-05-09T10:58:33.702Z,40.75
2018-05-09T11:01:01.509Z,40.79
2018-05-09T11:03:30.206Z,40.11
2018-05-09T11:05:57.908Z,39.25
2018-05-09T11:08:26.505Z,37.31
2018-05-09T11:10:54.130Z,37.76
2018-05-09T11:13:21.757Z,38.15
2018-05-09T11:15:50.544Z,37.87
2018-05-09T11:18:18.113Z,39.75
2018-05-09T11:20:45.644Z,41.93
2018-05-09T11:23:13.530Z,41.54
2018-05-09T11:25:41.060Z,40.83
2018-05-09T11:28:08.624Z,38.40
2018-05-09T11:30:36.195Z,37.85
2018-05-09T11:33:03.756Z,37.65
2018-05-09T11:35:31.483Z,37.59
2018-05-09T11:37:59.137Z,37.59
2018-05-09T11:40:26.780Z,38.79
2018-05-09T11:42:54.311Z,38.53
2018-05-09T11:45:22.225Z,37.31
2018-05-09T11:47:49.775Z,37.35
2018-05-09T11:50:17.301Z,36.50
2018-05-09T11:52:44.838Z,36.37
2018-05-09T11:55:12.372Z,36.21
2018-05-09T11:57:39.920Z,36.33
2018-05-09T12:00:08.453Z,35.55
2018-05-09T12:02:36.318Z,36.12
2018-05-09T12:05:03.905Z,35.66
2018-05-09T12:07:31.527Z,35.49
2018-05-09T12:09:59.136Z,34.64
2018-05-09T12:12:26.742Z,34.08
2018-05-09T12:14:54.706Z,36.08
2018-05-09T12:17:46.997Z,36.01
2018-05-09T12:20:14.566Z,36.41
2018-05-09T12:22:42.282Z,36.56
2018-05-09T12:25:09.918Z,36.66
2018-05-09T12:27:37.621Z,37.26
2018-05-09T12:30:05.304Z,38.77
2018-05-09T12:32:32.980Z,38.87
2018-05-09T12:35:00.711Z,39.66
2018-05-09T12:37:28.454Z,39.93
2018-05-09T12:39:56.160Z,39.11
2018-05-09T12:42:23.882Z,38.54
2018-05-09T12:44:51.564Z,37.58
2018-05-09T12:47:22.127Z,37.70
2018-05-09T12:49:49.817Z,37.02
2018-05-09T12:52:17.476Z,36.96
2018-05-09T12:54:45.126Z,36.73
2018-05-09T12:57:13.763Z,35.64
2018-05-09T12:59:41.469Z,33.82
2018-05-09T13:02:09.808Z,34.34
2018-05-09T13:04:37.434Z,33.00
2018-05-09T13:07:05.110Z,32.85
2018-05-09T13:09:33.619Z,31.20
2018-05-09T13:12:01.223Z,31.10
2018-05-09T13:14:28.815Z,30.25
2018-05-09T13:16:56.357Z,31.52
2018-05-09T13:19:23.897Z,32.73
2018-05-09T13:21:51.677Z,33.82
2018-05-09T13:24:19.284Z,33.50
2018-05-09T13:26:46.976Z,33.11
2018-05-09T13:29:14.774Z,31.47
2018-05-09T13:31:42.526Z,31.25
2018-05-09T13:34:10.097Z,31.62
2018-05-09T13:36:37.675Z,31.72
2018-05-09T13:39:05.305Z,32.57
2018-05-09T13:41:33.046Z,34.42
2018-05-09T13:44:00.665Z,33.52
2018-05-09T13:46:28.292Z,33.07
2018-05-09T13:48:55.906Z,32.00
2018-05-09T13:51:23.497Z,32.19
2018-05-09T13:53:51.251Z,32.19
2018-05-09T13:56:19.411Z,33.10
2018-05-09T13:58:47.041Z,33.29
2018-05-09T14:01:14.688Z,34.30
2018-05-09T14:03:42.323Z,34.64
2018-05-09T14:06:09.985Z,35.03
2018-05-09T14:11:20.556Z,34.21
2018-05-09T14:13:48.262Z,34.72
2018-05-09T14:16:15.818Z,35.27
2018-05-09T14:18:43.415Z,35.42
2018-05-09T14:21:11.007Z,36.15
2018-05-09T14:23:38.650Z,36.80
2018-05-09T14:26:06.258Z,36.78
2018-05-09T14:28:33.816Z,37.22
2018-05-09T14:31:01.342Z,37.10
2018-05-09T14:33:28.983Z,37.16
2018-05-09T14:35:56.664Z,37.35
2018-05-09T14:38:24.332Z,37.36
2018-05-09T14:40:51.972Z,38.11
2018-05-09T14:43:19.629Z,38.17
2018-05-09T14:45:47.268Z,38.63
2018-05-09T14:48:14.979Z,38.90
2018-05-09T14:50:42.648Z,38.69
2018-05-09T14:53:10.336Z,38.71
2018-05-09T14:55:37.988Z,38.66
2018-05-09T14:58:05.640Z,39.15
2018-05-09T15:00:33.347Z,39.05
2018-05-09T15:03:01.073Z,39.28
2018-05-09T15:05:29.774Z,39.39
2018-05-09T15:07:57.635Z,39.56
2018-05-09T15:10:25.163Z,38.71
2018-05-09T15:12:52.871Z,37.81
2018-05-09T15:15:20.550Z,38.21
2018-05-09T15:17:48.181Z,38.34
2018-05-09T15:20:15.797Z,38.23
2018-05-09T15:22:44.158Z,37.83
2018-05-09T15:25:11.703Z,36.27
2018-05-09T15:27:39.400Z,37.05
2018-05-09T15:30:07.160Z,36.88
2018-05-09T15:32:35.917Z,38.65
2018-05-09T15:35:03.538Z,40.97
2018-05-09T15:37:31.087Z,41.84
2018-05-09T15:40:03.387Z,42.38
2018-05-09T15:42:32.224Z,43.47
2018-05-09T15:44:59.735Z,45.54
2018-05-09T15:47:27.308Z,48.06
2018-05-09T15:49:54.842Z,48.52
2018-05-09T15:52:22.395Z,47.43
2018-05-09T15:54:49.914Z,47.98
2018-05-09T15:57:17.445Z,48.40
2018-05-09T15:59:44.975Z,48.01
2018-05-09T16:02:12.517Z,46.33
2018-05-09T16:04:40.269Z,45.89
2018-05-09T16:07:08.293Z,46.95
2018-05-09T16:09:35.829Z,46.54
2018-05-09T16:12:03.437Z,44.48
2018-05-09T16:14:31.352Z,45.13
2018-05-09T16:16:59.018Z,44.19
2018-05-09T16:19:26.841Z,43.96
2018-05-09T16:21:54.593Z,41.88
2018-05-09T16:24:22.255Z,40.83
2018-05-09T16:26:49.903Z,40.79
2018-05-09T16:29:17.474Z,40.92
2018-05-09T16:31:45.071Z,41.62
2018-05-09T16:34:12.667Z,42.60
2018-05-09T16:36:40.271Z,42.52
2018-05-09T16:39:07.872Z,42.65
2018-05-09T16:41:35.688Z,42.78
2018-05-09T16:44:03.374Z,43.12
2018-05-09T16:46:31.029Z,42.98
2018-05-09T16:48:58.628Z,42.23
2018-05-09T16:51:27.039Z,42.48
2018-05-09T16:53:54.734Z,42.83
2018-05-09T16:56:22.266Z,42.66
2018-05-09T16:58:49.929Z,43.08
2018-05-09T17:01:17.473Z,43.21
2018-05-09T17:03:45.457Z,43.59
2018-05-09T17:06:14.159Z,43.62
2018-05-09T17:08:41.804Z,43.57
2018-05-09T17:11:09.843Z,43.68
2018-05-09T17:13:37.618Z,43.87
2018-05-09T17:16:05.387Z,44.12
2018-05-09T17:18:33.076Z,44.99
2018-05-09T17:21:01.041Z,45.11
2018-05-09T17:23:29.568Z,45.29
2018-05-09T17:25:57.239Z,45.48
2018-05-09T17:28:25.757Z,45.87
2018-05-09T17:30:53.426Z,46.35
2018-05-09T17:33:21.077Z,46.40
2018-05-09T17:35:48.851Z,47.23
2018-05-09T17:38:16.456Z,47.21
2018-05-09T17:40:44.128Z,47.73
2018-05-09T17:43:12.072Z,48.21
2018-05-09T17:45:39.868Z,48.36
2018-05-09T17:48:07.607Z,48.87
2018-05-09T17:50:35.379Z,49.22
2018-05-09T17:53:03.136Z,49.17
2018-05-09T17:55:30.925Z,49.25
2018-05-09T18:00:33.218Z,49.35
2018-05-09T18:03:00.898Z,49.65
2018-05-09T18:05:28.598Z,49.86
2018-05-09T18:07:56.535Z,50.43
2018-05-09T18:10:24.102Z,51.05
2018-05-09T18:12:51.734Z,51.35
2018-05-09T18:15:22.195Z,51.73
2018-05-09T18:17:49.976Z,52.34
2018-05-09T18:20:17.689Z,52.94
2018-05-09T18:22:46.322Z,53.45
2018-05-09T18:25:13.971Z,53.81
2018-05-09T18:27:41.643Z,54.28
2018-05-09T18:30:09.220Z,54.56
2018-05-09T18:32:36.800Z,54.92
2018-05-09T18:35:04.368Z,55.03
2018-05-09T18:37:34.069Z,54.87
2018-05-09T18:40:01.744Z,55.38
2018-05-09T18:42:29.395Z,55.37
2018-05-09T18:44:57.016Z,55.87
2018-05-09T18:47:24.719Z,56.13
2018-05-09T18:49:52.969Z,56.28
2018-05-09T18:52:20.793Z,56.53
2018-05-09T18:54:49.327Z,56.84
2018-05-09T18:57:17.907Z,57.53
2018-05-09T18:59:48.925Z,57.60
2018-05-09T19:02:16.472Z,58.06
2018-05-09T19:04:45.017Z,58.51
2018-05-09T19:07:12.808Z,58.48
2018-05-09T19:09:41.347Z,58.83
2018-05-09T19:12:09.050Z,59.15
2018-05-09T19:14:36.652Z,59.45
2018-05-09T19:17:04.425Z,59.47
2018-05-09T19:19:32.181Z,59.72
2018-05-09T19:21:59.908Z,59.86
2018-05-09T19:24:27.709Z,59.96
2018-05-09T19:26:55.424Z,60.00
2018-05-09T19:29:23.113Z,59.83
2018-05-09T19:31:50.755Z,60.14
2018-05-09T19:34:18.414Z,60.36
2018-05-09T19:36:46.815Z,60.78
2018-05-09T19:39:16.510Z,60.61
2018-05-09T19:41:44.103Z,60.89
2018-05-09T19:44:12.651Z,60.88
2018-05-09T19:46:40.297Z,60.75
2018-05-09T19:49:08.017Z,61.03
2018-05-09T19:51:35.755Z,61.26
2018-05-09T19:54:03.605Z,61.71
2018-05-09T19:56:32.406Z,61.82
2018-05-09T19:59:00.313Z,62.19
2018-05-09T20:01:27.954Z,62.50
2018-05-09T20:03:56.849Z,62.61
2018-05-09T20:06:24.630Z,62.67
2018-05-09T20:08:52.257Z,62.85
2018-05-09T20:11:20.064Z,62.93
2018-05-09T20:13:47.773Z,62.68
2018-05-09T20:16:15.394Z,62.84
2018-05-09T20:18:43.079Z,62.87
2018-05-09T20:21:10.845Z,62.66
2018-05-09T20:23:38.516Z,63.03
2018-05-09T20:26:06.047Z,62.82
2018-05-09T20:31:24.718Z,62.54
2018-05-09T20:33:52.269Z,62.83
2018-05-09T20:36:19.801Z,63.42
2018-05-09T20:38:47.418Z,63.90
2018-05-09T20:41:15.050Z,63.76
2018-05-09T20:43:42.734Z,63.67
2018-05-09T20:46:10.539Z,63.49
2018-05-09T20:48:38.307Z,63.88
2018-05-09T20:51:07.387Z,64.03
2018-05-09T20:53:35.280Z,64.11
2018-05-09T20:56:03.109Z,64.22
2018-05-09T20:58:31.393Z,64.73
2018-05-09T21:00:59.090Z,64.60
2018-05-09T21:03:27.510Z,64.50
2018-05-09T21:05:55.241Z,64.69
2018-05-09T21:08:23.331Z,64.63
2018-05-09T21:10:50.966Z,64.62
2018-05-09T21:13:18.474Z,64.41
2018-05-09T21:15:46.052Z,64.30
2018-05-09T21:18:13.597Z,64.64
2018-05-09T21:20:41.142Z,64.89
2018-05-09T21:23:09.581Z,64.93
2018-05-09T21:25:37.426Z,64.94
2018-05-09T21:28:04.943Z,65.29
2018-05-09T21:30:32.516Z,65.73
2018-05-09T21:33:00.067Z,65.92
2018-05-09T21:35:28.483Z,65.97
2018-05-09T21:37:56.345Z,65.84
2018-05-09T21:40:24.008Z,65.85
2018-05-09T21:42:51.572Z,65.80
2018-05-09T21:45:19.320Z,66.11
2018-05-09T21:47:47.536Z,66.25
2018-05-09T21:50:15.196Z,66.37
2018-05-09T21:52:42.855Z,66.69
2018-05-09T21:55:10.933Z,66.94
2018-05-09T21:57:39.066Z,66.62
2018-05-09T22:00:06.751Z,66.41
2018-05-09T22:02:34.671Z,65.80
2018-05-09T22:05:02.208Z,66.17
2018-05-09T22:07:30.126Z,66.36
2018-05-09T22:09:57.780Z,66.40
2018-05-09T22:12:25.749Z,66.67
2018-05-09T22:14:53.457Z,66.89
2018-05-09T22:17:21.396Z,66.76
2018-05-09T22:19:49.064Z,66.62
2018-05-09T22:22:16.665Z,66.50
2018-05-09T22:24:44.283Z,66.29
2018-05-09T22:27:12.464Z,66.13
2018-05-09T22:29:40.004Z,65.94
2018-05-09T22:32:07.619Z,65.98
2018-05-09T22:34:35.232Z,66.01
2018-05-09T22:37:02.981Z,66.50
2018-05-09T22:39:30.616Z,66.64
2018-05-09T22:41:58.297Z,66.85
2018-05-09T22:44:25.891Z,66.99
2018-05-09T22:46:53.569Z,67.28
2018-05-09T22:49:21.382Z,67.17
2018-05-09T22:51:48.988Z,67.75
2018-05-09T22:54:16.551Z,67.28
2018-05-09T22:56:44.104Z,67.35
2018-05-09T22:59:11.699Z,67.76
2018-05-09T23:01:39.349Z,67.76
2018-05-09T23:04:06.995Z,67.87
2018-05-09T23:06:34.633Z,67.97
2018-05-09T23:09:02.235Z,68.08
2018-05-09T23:11:29.909Z,68.03
2018-05-09T23:13:57.516Z,68.37
2018-05-09T23:16:25.055Z,68.44
2018-05-09T23:18:52.666Z,68.37
2018-05-09T23:21:21.185Z,68.37
2018-05-09T23:23:48.944Z,67.90
2018-05-09T23:26:16.469Z,68.31
2018-05-09T23:31:17.894Z,68.73
2018-05-09T23:33:45.456Z,68.71
2018-05-09T23:36:13.025Z,68.98
2018-05-09T23:38:40.576Z,68.94
2018-05-09T23:41:08.354Z,68.77
2018-05-09T23:43:36.063Z,68.66
2018-05-09T23:46:03.738Z,68.55
2018-05-09T23:48:31.366Z,68.24
2018-05-09T23:50:58.924Z,68.37
2018-05-09T23:53:26.612Z,68.47
2018-05-09T23:55:54.184Z,68.76
2018-05-09T23:58:21.685Z,68.91
